createdAt,value
2023-09-26T00:00:20.693Z,21.46
2023-09-26T00:03:09.007Z,21.48
2023-09-26T00:05:36.926Z,21.68
2023-09-26T00:08:05.185Z,21.59
2023-09-26T00:10:33.437Z,21.44
2023-09-26T00:13:01.414Z,21.62
2023-09-26T00:15:29.188Z,21.31
2023-09-26T00:17:58.942Z,21.41
2023-09-26T00:20:29.711Z,21.26
2023-09-26T00:22:58.289Z,21.20
2023-09-26T00:25:25.945Z,21.31
2023-09-26T00:27:54.580Z,21.12
2023-09-26T00:30:22.652Z,21.18
2023-09-26T00:32:51.845Z,21.18
2023-09-26T00:35:20.881Z,21.05
2023-09-26T00:37:50.861Z,21.24
2023-09-26T00:40:25.171Z,21.19
2023-09-26T00:42:53.695Z,21.20
2023-09-26T00:45:21.508Z,21.01
2023-09-26T00:47:49.942Z,21.08
2023-09-26T00:50:18.899Z,21.11
2023-09-26T00:52:48.556Z,21.27
2023-09-26T00:55:18.870Z,21.20
2023-09-26T00:57:47.515Z,21.16
2023-09-26T01:00:16.928Z,21.16
2023-09-26T01:02:45.918Z,21.07
2023-09-26T01:05:13.653Z,20.95
2023-09-26T01:07:41.995Z,20.96
2023-09-26T01:10:09.959Z,20.96
2023-09-26T01:12:40.343Z,21.00
2023-09-26T01:15:09.936Z,20.95
2023-09-26T01:17:38.918Z,20.86
2023-09-26T01:20:16.719Z,21.19
2023-09-26T01:22:47.049Z,20.94
2023-09-26T01:25:16.673Z,20.85
2023-09-26T01:27:44.979Z,20.79
2023-09-26T01:30:13.196Z,20.75
2023-09-26T01:32:41.240Z,20.79
2023-09-26T01:35:09.121Z,20.84
2023-09-26T01:37:37.118Z,20.90
2023-09-26T01:40:17.117Z,20.94
2023-09-26T01:42:45.487Z,20.95
2023-09-26T01:45:13.230Z,20.87
2023-09-26T01:47:48.653Z,20.72
2023-09-26T01:50:17.280Z,20.67
2023-09-26T01:52:45.733Z,20.55
2023-09-26T01:55:15.947Z,20.64
2023-09-26T01:57:46.155Z,20.86
2023-09-26T02:00:14.940Z,20.69
2023-09-26T02:02:44.346Z,20.85
2023-09-26T02:05:13.678Z,20.77
2023-09-26T02:07:43.134Z,20.76
2023-09-26T02:10:11.463Z,20.84
2023-09-26T02:12:40.738Z,20.73
2023-09-26T02:15:10.514Z,20.81
2023-09-26T02:17:39.923Z,20.69
2023-09-26T02:20:14.692Z,20.77
2023-09-26T02:22:43.786Z,20.66
2023-09-26T02:25:14.923Z,20.55
2023-09-26T02:27:44.076Z,20.71
2023-09-26T02:30:13.243Z,20.59
2023-09-26T02:32:41.873Z,20.61
2023-09-26T02:35:12.268Z,20.60
2023-09-26T02:37:40.597Z,20.73
2023-09-26T02:40:09.111Z,20.72
2023-09-26T02:42:38.122Z,20.53
2023-09-26T02:45:06.073Z,20.49
2023-09-26T02:47:34.583Z,20.33
2023-09-26T02:50:02.511Z,20.19
2023-09-26T02:52:56.864Z,20.42
2023-09-26T02:55:24.515Z,20.48
2023-09-26T02:57:52.569Z,20.43
2023-09-26T03:00:20.727Z,20.38
2023-09-26T03:02:49.766Z,20.30
2023-09-26T03:05:18.406Z,20.30
2023-09-26T03:07:46.919Z,20.28
2023-09-26T03:10:17.823Z,20.32
2023-09-26T03:12:46.303Z,20.18
2023-09-26T03:15:14.221Z,20.21
2023-09-26T03:17:42.340Z,20.12
2023-09-26T03:20:10.475Z,20.26
2023-09-26T03:22:38.606Z,20.15
2023-09-26T03:25:07.041Z,20.07
2023-09-26T03:27:35.225Z,20.11
2023-09-26T03:30:03.310Z,20.10
2023-09-26T03:32:31.410Z,20.18
2023-09-26T03:34:59.197Z,20.15
2023-09-26T03:37:27.310Z,20.08
2023-09-26T03:39:56.468Z,20.18
2023-09-26T03:42:24.545Z,20.09
2023-09-26T03:44:52.208Z,20.11
2023-09-26T03:47:20.214Z,20.10
2023-09-26T03:49:51.404Z,20.04
2023-09-26T03:52:19.506Z,19.94
2023-09-26T03:54:47.129Z,20.11
2023-09-26T03:57:15.079Z,19.97
2023-09-26T03:59:42.791Z,20.06
2023-09-26T04:02:10.883Z,20.17
2023-09-26T04:04:38.929Z,20.08
2023-09-26T04:07:08.271Z,20.18
2023-09-26T04:09:39.482Z,20.00
2023-09-26T04:12:07.588Z,19.92
2023-09-26T04:14:35.215Z,19.91
2023-09-26T04:17:03.709Z,19.83
2023-09-26T04:19:31.693Z,19.94
2023-09-26T04:22:00.854Z,20.01
2023-09-26T04:24:28.834Z,20.02
2023-09-26T04:26:56.984Z,19.94
2023-09-26T04:29:24.700Z,19.89
2023-09-26T04:31:52.936Z,19.91
2023-09-26T04:34:23.014Z,19.89
2023-09-26T04:36:51.293Z,19.86
2023-09-26T04:39:19.476Z,19.86
2023-09-26T04:41:47.453Z,19.86
2023-09-26T04:44:15.172Z,19.93
2023-09-26T04:46:43.979Z,19.82
2023-09-26T04:49:11.739Z,19.90
2023-09-26T04:51:39.979Z,19.94
2023-09-26T04:54:07.723Z,19.91
2023-09-26T04:56:37.254Z,19.83
2023-09-26T04:59:06.601Z,19.84
2023-09-26T05:01:34.990Z,20.02
2023-09-26T05:04:02.795Z,19.79
2023-09-26T05:06:31.400Z,19.58
2023-09-26T05:08:59.037Z,19.67
2023-09-26T05:11:29.400Z,19.69
2023-09-26T05:13:57.080Z,19.70
2023-09-26T05:16:26.171Z,19.88
2023-09-26T05:18:53.843Z,19.80
2023-09-26T05:21:22.834Z,19.87
2023-09-26T05:23:51.253Z,20.06
2023-09-26T05:26:19.470Z,19.75
2023-09-26T05:28:47.119Z,19.84
2023-09-26T05:31:15.277Z,19.81
2023-09-26T05:33:43.621Z,19.77
2023-09-26T05:36:11.655Z,19.84
2023-09-26T05:38:39.330Z,20.00
2023-09-26T05:41:07.286Z,20.03
2023-09-26T05:43:35.014Z,20.15
2023-09-26T05:46:05.531Z,20.02
2023-09-26T05:48:33.491Z,20.14
2023-09-26T05:51:03.778Z,20.18
2023-09-26T05:53:31.698Z,20.13
2023-09-26T05:56:00.088Z,20.33
2023-09-26T05:58:27.838Z,20.34
2023-09-26T06:00:58.190Z,20.79
2023-09-26T06:03:26.242Z,21.00
2023-09-26T06:05:54.396Z,21.16
2023-09-26T06:08:22.127Z,21.09
2023-09-26T06:10:54.067Z,21.17
2023-09-26T06:13:22.587Z,21.46
2023-09-26T06:15:50.736Z,21.27
2023-09-26T06:18:18.785Z,21.31
2023-09-26T06:20:47.236Z,21.15
2023-09-26T06:23:14.969Z,20.85
2023-09-26T06:25:56.002Z,20.96
2023-09-26T06:28:24.384Z,21.32
2023-09-26T06:30:52.500Z,21.46
2023-09-26T06:33:20.219Z,21.42
2023-09-26T06:35:48.350Z,21.59
2023-09-26T06:38:16.142Z,21.74
2023-09-26T06:40:44.561Z,21.72
2023-09-26T06:43:12.347Z,22.06
2023-09-26T06:45:40.731Z,22.09
2023-09-26T06:48:08.538Z,22.35
2023-09-26T06:50:42.645Z,22.50
2023-09-26T06:53:10.550Z,22.34
2023-09-26T06:55:41.729Z,22.34
2023-09-26T06:58:09.851Z,22.86
2023-09-26T07:00:39.402Z,22.62
2023-09-26T07:03:07.577Z,23.05
2023-09-26T07:05:35.719Z,23.49
2023-09-26T07:08:03.895Z,23.65
2023-09-26T07:10:37.700Z,23.18
2023-09-26T07:13:07.436Z,23.20
2023-09-26T07:15:37.462Z,23.08
2023-09-26T07:18:07.995Z,23.20
2023-09-26T07:20:36.152Z,23.50
2023-09-26T07:23:05.423Z,23.75
2023-09-26T07:25:33.492Z,23.89
2023-09-26T07:28:01.241Z,23.82
2023-09-26T07:30:29.354Z,24.11
2023-09-26T07:32:57.028Z,24.13
2023-09-26T07:35:27.172Z,24.04
2023-09-26T07:37:55.205Z,24.35
2023-09-26T07:40:23.945Z,24.63
2023-09-26T07:42:51.804Z,24.79
2023-09-26T07:45:19.876Z,25.19
2023-09-26T07:47:47.594Z,25.40
2023-09-26T07:50:16.801Z,25.51
2023-09-26T07:52:44.704Z,24.95
2023-09-26T07:55:13.849Z,24.80
2023-09-26T07:57:41.762Z,25.14
2023-09-26T08:00:14.505Z,25.23
2023-09-26T08:02:42.308Z,25.96
2023-09-26T08:05:10.408Z,26.18
2023-09-26T08:07:39.636Z,26.16
2023-09-26T08:10:10.048Z,26.50
2023-09-26T08:12:37.993Z,26.61
2023-09-26T08:15:06.622Z,26.74
2023-09-26T08:17:34.354Z,26.78
2023-09-26T08:20:02.356Z,26.92
2023-09-26T08:22:30.001Z,26.82
2023-09-26T08:24:57.978Z,27.11
2023-09-26T08:27:25.849Z,27.40
2023-09-26T08:29:54.058Z,27.48
2023-09-26T08:32:22.060Z,27.67
2023-09-26T08:34:50.183Z,26.98
2023-09-26T08:37:18.446Z,27.04
2023-09-26T08:39:46.623Z,27.38
2023-09-26T08:42:22.404Z,27.70
2023-09-26T08:44:51.754Z,27.96
2023-09-26T08:47:21.249Z,28.02
2023-09-26T08:49:50.722Z,28.27
2023-09-26T08:52:18.458Z,28.38
2023-09-26T08:54:46.716Z,28.41
2023-09-26T08:57:15.758Z,28.48
2023-09-26T08:59:47.460Z,28.37
2023-09-26T09:02:15.677Z,27.45
2023-09-26T09:04:44.458Z,27.84
2023-09-26T09:07:12.978Z,28.12
2023-09-26T09:10:08.485Z,28.40
2023-09-26T09:12:39.187Z,28.55
2023-09-26T09:15:29.472Z,28.37
2023-09-26T09:17:57.159Z,28.06
2023-09-26T09:20:34.757Z,28.41
2023-09-26T09:23:06.310Z,28.20
2023-09-26T09:25:36.735Z,27.94
2023-09-26T09:28:05.818Z,27.73
2023-09-26T09:30:43.827Z,27.23
2023-09-26T09:33:12.735Z,27.50
2023-09-26T09:35:42.076Z,27.48
2023-09-26T09:38:14.942Z,28.37
2023-09-26T09:40:43.392Z,28.61
2023-09-26T09:43:11.163Z,29.35
2023-09-26T09:45:40.410Z,29.73
2023-09-26T09:48:10.098Z,30.10
2023-09-26T09:50:38.521Z,30.16
2023-09-26T09:53:06.300Z,29.94
2023-09-26T09:55:40.222Z,29.98
2023-09-26T09:58:13.243Z,30.16
2023-09-26T10:00:44.183Z,30.26
2023-09-26T10:03:13.269Z,30.21
2023-09-26T10:05:41.433Z,30.36
2023-09-26T10:08:09.558Z,30.69
2023-09-26T10:10:37.728Z,30.54
2023-09-26T10:13:34.353Z,30.33
2023-09-26T10:16:07.372Z,30.72
2023-09-26T10:18:42.767Z,30.76
2023-09-26T10:21:21.068Z,30.95
2023-09-26T10:24:07.193Z,30.79
2023-09-26T10:26:38.460Z,30.95
2023-09-26T10:29:13.852Z,31.22
2023-09-26T10:31:49.457Z,31.06
2023-09-26T10:34:17.412Z,30.91
2023-09-26T10:36:45.524Z,31.04
2023-09-26T10:39:13.656Z,31.58
2023-09-26T10:44:29.898Z,31.59
2023-09-26T10:46:58.112Z,31.69
2023-09-26T10:49:26.735Z,31.93
2023-09-26T10:51:55.826Z,32.04
2023-09-26T11:02:26.143Z,32.67
2023-09-26T11:04:54.743Z,32.62
2023-09-26T11:07:23.383Z,31.85
2023-09-26T11:09:51.693Z,31.94
2023-09-26T11:12:19.695Z,32.44
2023-09-26T11:14:47.815Z,31.88
2023-09-26T11:17:15.611Z,32.18
2023-09-26T11:19:44.163Z,32.10
2023-09-26T11:22:12.077Z,32.58
2023-09-26T11:24:40.270Z,32.79
2023-09-26T11:27:10.025Z,32.91
2023-09-26T11:29:39.415Z,33.25
2023-09-26T11:32:07.443Z,33.37
2023-09-26T11:34:36.584Z,32.99
2023-09-26T11:37:07.393Z,32.74
2023-09-26T11:39:35.550Z,32.58
2023-09-26T11:42:07.913Z,33.36
2023-09-26T11:44:37.228Z,33.20
2023-09-26T11:47:06.832Z,33.27
2023-09-26T11:49:35.588Z,33.59
2023-09-26T11:52:03.834Z,33.49
2023-09-26T11:54:31.945Z,33.63
2023-09-26T11:57:01.179Z,32.90
2023-09-26T11:59:29.477Z,32.81
2023-09-26T12:02:00.669Z,33.12
2023-09-26T12:04:29.963Z,32.37
2023-09-26T12:06:57.878Z,33.07
2023-09-26T12:09:26.124Z,33.76
2023-09-26T12:11:56.536Z,33.49
2023-09-26T12:14:24.971Z,32.24
2023-09-26T12:16:53.878Z,31.75
2023-09-26T12:19:23.291Z,33.36
2023-09-26T12:21:51.213Z,33.09
2023-09-26T12:24:19.674Z,32.85
2023-09-26T12:26:48.524Z,33.19
2023-09-26T12:29:16.840Z,32.62
2023-09-26T12:31:45.636Z,32.92
2023-09-26T12:34:16.170Z,33.92
2023-09-26T12:36:44.062Z,34.06
2023-09-26T12:39:13.086Z,33.96
2023-09-26T12:41:41.171Z,34.18
2023-09-26T12:44:11.626Z,34.28
2023-09-26T12:46:39.826Z,33.93
2023-09-26T12:49:08.634Z,34.07
2023-09-26T12:51:37.348Z,34.46
2023-09-26T12:54:05.948Z,34.45
2023-09-26T12:56:34.121Z,33.80
2023-09-26T12:59:02.428Z,34.20
2023-09-26T13:01:31.065Z,34.59
2023-09-26T13:03:59.546Z,34.14
2023-09-26T13:06:27.363Z,33.22
2023-09-26T13:08:55.480Z,33.72
2023-09-26T13:11:23.304Z,33.21
2023-09-26T13:13:51.489Z,33.12
2023-09-26T13:16:19.657Z,33.83
2023-09-26T13:18:47.826Z,34.24
2023-09-26T13:21:16.816Z,34.70
2023-09-26T13:23:44.898Z,33.81
2023-09-26T13:26:12.743Z,34.23
2023-09-26T13:28:40.913Z,34.46
2023-09-26T13:31:08.757Z,34.66
2023-09-26T13:33:37.160Z,34.19
2023-09-26T13:36:05.231Z,34.53
2023-09-26T13:38:33.691Z,34.37
2023-09-26T13:41:01.897Z,34.89
2023-09-26T13:43:30.037Z,35.04
2023-09-26T13:45:57.981Z,35.04
2023-09-26T13:48:26.104Z,35.03
2023-09-26T13:50:53.815Z,34.53
2023-09-26T13:53:22.093Z,34.96
2023-09-26T13:55:49.986Z,34.66
2023-09-26T13:58:18.038Z,34.93
2023-09-26T14:00:46.040Z,34.90
2023-09-26T14:03:14.399Z,35.00
2023-09-26T14:05:42.720Z,35.21
2023-09-26T14:08:11.264Z,35.14
2023-09-26T14:10:39.204Z,34.97
2023-09-26T14:13:07.370Z,34.53
2023-09-26T14:15:35.140Z,34.93
2023-09-26T14:18:03.407Z,35.12
2023-09-26T14:20:35.442Z,34.86
2023-09-26T14:23:03.903Z,35.31
2023-09-26T14:25:31.757Z,35.30
2023-09-26T14:28:02.189Z,35.23
2023-09-26T14:30:29.976Z,35.15
2023-09-26T14:32:59.147Z,35.73
2023-09-26T14:35:27.136Z,36.79
2023-09-26T14:37:55.275Z,35.74
2023-09-26T14:40:23.402Z,34.57
2023-09-26T14:42:51.493Z,37.26
2023-09-26T14:45:19.246Z,39.49
2023-09-26T14:47:47.814Z,40.60
2023-09-26T14:50:15.645Z,41.28
2023-09-26T14:52:44.160Z,40.69
2023-09-26T14:55:11.922Z,40.09
2023-09-26T14:57:39.997Z,38.90
2023-09-26T15:00:10.681Z,39.43
2023-09-26T15:54:43.408Z,33.68
2023-09-26T15:57:11.653Z,33.94
2023-09-26T15:59:39.401Z,33.24
2023-09-26T16:02:09.769Z,33.10
2023-09-26T16:04:38.924Z,32.96
2023-09-26T16:07:09.552Z,32.61
2023-09-26T16:09:37.398Z,32.32
2023-09-26T16:12:05.965Z,32.25
2023-09-26T16:14:34.382Z,32.25
2023-09-26T16:17:02.788Z,31.54
2023-09-26T16:19:32.107Z,31.48
2023-09-26T16:22:00.162Z,31.44
2023-09-26T16:24:27.938Z,31.19
2023-09-26T16:26:55.966Z,30.93
2023-09-26T16:29:23.746Z,30.85
2023-09-26T16:31:51.859Z,30.80
2023-09-26T16:34:21.141Z,30.52
2023-09-26T16:36:49.538Z,30.39
2023-09-26T16:39:17.235Z,30.08
2023-09-26T16:41:45.320Z,29.86
2023-09-26T16:44:13.136Z,29.79
2023-09-26T16:46:41.584Z,29.71
2023-09-26T16:49:09.632Z,29.64
2023-09-26T16:51:37.679Z,29.62
2023-09-26T16:54:05.745Z,29.34
2023-09-26T16:56:34.847Z,29.41
2023-09-26T16:59:03.292Z,29.37
2023-09-26T17:01:31.763Z,29.25
2023-09-26T17:03:59.413Z,29.12
2023-09-26T17:06:27.625Z,29.29
2023-09-26T17:08:55.638Z,29.01
2023-09-26T17:11:23.670Z,29.09
2023-09-26T17:13:51.386Z,29.02
2023-09-26T17:16:19.604Z,28.92
2023-09-26T17:18:47.395Z,28.78
2023-09-26T17:21:15.563Z,28.55
2023-09-26T17:23:43.490Z,28.52
2023-09-26T17:26:12.418Z,28.57
2023-09-26T17:28:40.540Z,28.40
2023-09-26T17:31:08.665Z,28.36
2023-09-26T17:33:36.861Z,28.41
2023-09-26T17:36:08.154Z,28.27
2023-09-26T17:38:42.892Z,28.33
2023-09-26T17:41:11.532Z,28.27
2023-09-26T17:43:40.185Z,28.03
2023-09-26T17:46:09.448Z,27.96
2023-09-26T17:48:37.760Z,27.91
2023-09-26T17:51:10.976Z,27.90
2023-09-26T17:53:39.012Z,27.66
2023-09-26T17:56:07.464Z,27.66
2023-09-26T17:58:35.190Z,27.46
2023-09-26T18:01:04.688Z,27.52
2023-09-26T18:03:33.353Z,27.48
2023-09-26T18:06:01.534Z,27.42
2023-09-26T18:08:29.245Z,27.26
2023-09-26T18:10:57.260Z,27.18
2023-09-26T18:13:24.904Z,27.32
2023-09-26T18:15:53.159Z,27.25
2023-09-26T18:18:20.846Z,27.38
2023-09-26T18:20:49.226Z,27.23
2023-09-26T18:23:16.953Z,27.06
2023-09-26T18:25:45.165Z,26.95
2023-09-26T18:28:15.373Z,26.83
2023-09-26T18:30:43.733Z,26.80
2023-09-26T18:33:11.810Z,26.86
2023-09-26T18:35:40.898Z,27.06
2023-09-26T18:38:08.740Z,26.87
2023-09-26T18:40:36.846Z,26.83
2023-09-26T18:43:04.663Z,26.82
2023-09-26T18:45:32.647Z,26.84
2023-09-26T18:48:00.427Z,26.69
2023-09-26T18:50:30.541Z,26.45
2023-09-26T18:52:59.176Z,26.51
2023-09-26T18:55:27.426Z,26.54
2023-09-26T18:57:54.985Z,26.61
2023-09-26T19:00:23.936Z,26.49
2023-09-26T19:02:53.296Z,26.37
2023-09-26T19:05:21.678Z,26.43
2023-09-26T19:07:49.499Z,26.35
2023-09-26T19:10:17.512Z,26.45
2023-09-26T19:12:45.186Z,26.42
2023-09-26T19:15:13.273Z,26.21
2023-09-26T19:17:42.668Z,26.27
2023-09-26T19:20:11.726Z,26.16
2023-09-26T19:22:42.958Z,26.06
2023-09-26T19:25:16.363Z,25.98
2023-09-26T19:27:44.033Z,25.97
2023-09-26T19:30:12.754Z,26.06
2023-09-26T19:32:40.952Z,25.95
2023-09-26T19:35:09.805Z,25.82
2023-09-26T19:37:38.597Z,25.77
2023-09-26T19:40:06.985Z,25.70
2023-09-26T19:42:34.710Z,25.74
2023-09-26T19:45:03.769Z,25.85
2023-09-26T19:47:31.524Z,25.78
2023-09-26T19:49:59.665Z,25.63
2023-09-26T19:52:27.373Z,25.65
2023-09-26T19:54:55.652Z,25.67
2023-09-26T19:57:23.469Z,25.67
2023-09-26T19:59:52.585Z,25.71
2023-09-26T20:02:21.047Z,25.67
2023-09-26T20:04:49.937Z,25.55
2023-09-26T20:07:19.928Z,25.50
2023-09-26T20:09:49.145Z,25.53
2023-09-26T20:12:17.006Z,25.47
2023-09-26T20:14:47.020Z,25.45
2023-09-26T20:17:14.977Z,25.45
2023-09-26T20:19:43.367Z,25.24
2023-09-26T20:22:11.155Z,25.08
2023-09-26T20:24:39.216Z,25.10
2023-09-26T20:27:08.042Z,25.13
2023-09-26T20:29:36.103Z,25.13
2023-09-26T20:32:03.902Z,25.19
2023-09-26T20:34:32.597Z,25.19
2023-09-26T20:37:00.283Z,25.07
2023-09-26T20:39:28.368Z,24.85
2023-09-26T20:41:56.559Z,24.78
2023-09-26T20:44:24.547Z,24.74
2023-09-26T20:46:52.281Z,24.82
2023-09-26T20:49:21.096Z,24.77
2023-09-26T20:51:48.924Z,24.87
2023-09-26T20:54:17.489Z,24.69
2023-09-26T20:56:45.696Z,24.61
2023-09-26T20:59:15.196Z,24.63
2023-09-26T21:01:43.139Z,24.53
2023-09-26T21:04:11.941Z,24.77
2023-09-26T21:06:40.019Z,24.53
2023-09-26T21:09:08.082Z,24.44
2023-09-26T21:11:35.997Z,24.50
2023-09-26T21:14:04.030Z,24.53
2023-09-26T21:16:31.761Z,24.39
2023-09-26T21:19:00.648Z,24.38
2023-09-26T21:21:29.665Z,24.42
2023-09-26T21:23:57.947Z,24.32
2023-09-26T21:26:25.756Z,24.24
2023-09-26T21:28:54.159Z,24.28
2023-09-26T21:31:22.425Z,24.22
2023-09-26T21:33:50.932Z,24.18
2023-09-26T21:36:18.911Z,24.08
2023-09-26T21:38:47.283Z,24.03
2023-09-26T21:41:15.002Z,24.09
2023-09-26T21:43:43.046Z,24.10
2023-09-26T21:46:10.880Z,23.97
2023-09-26T21:48:39.429Z,23.91
2023-09-26T21:51:07.628Z,23.94
2023-09-26T21:53:36.531Z,23.91
2023-09-26T21:56:10.983Z,23.86
2023-09-26T21:58:39.311Z,23.95
2023-09-26T22:01:07.064Z,23.93
2023-09-26T22:03:35.235Z,23.83
2023-09-26T22:06:02.991Z,23.86
2023-09-26T22:08:31.046Z,23.93
2023-09-26T22:10:58.855Z,23.69
2023-09-26T22:13:28.080Z,23.60
2023-09-26T22:15:56.097Z,23.76
2023-09-26T22:18:25.413Z,23.84
2023-09-26T22:20:54.861Z,23.87
2023-09-26T22:23:24.911Z,23.79
2023-09-26T22:25:53.732Z,23.91
2023-09-26T22:28:21.976Z,23.77
2023-09-26T22:30:49.697Z,23.83
2023-09-26T22:33:18.221Z,23.89
2023-09-26T22:35:45.984Z,23.80
2023-09-26T22:38:14.158Z,23.88
2023-09-26T22:40:50.879Z,23.91
2023-09-26T22:43:21.066Z,23.94
2023-09-26T22:45:49.238Z,24.04
2023-09-26T22:48:17.614Z,24.03
2023-09-26T22:50:46.283Z,23.98
2023-09-26T22:53:14.817Z,24.06
2023-09-26T22:55:42.621Z,23.92
2023-09-26T22:58:10.634Z,23.93
2023-09-26T23:00:38.729Z,23.96
2023-09-26T23:03:07.237Z,23.79
2023-09-26T23:05:38.257Z,23.76
2023-09-26T23:08:08.066Z,23.72
2023-09-26T23:10:36.119Z,23.60
2023-09-26T23:13:04.157Z,23.60
2023-09-26T23:15:31.779Z,23.69
2023-09-26T23:17:59.865Z,23.50
2023-09-26T23:20:27.536Z,23.32
2023-09-26T23:22:55.864Z,23.49
2023-09-26T23:25:23.592Z,23.37
2023-09-26T23:27:51.616Z,23.44
2023-09-26T23:30:19.339Z,23.17
2023-09-26T23:32:47.321Z,23.18
2023-09-26T23:35:20.887Z,23.25
2023-09-26T23:37:52.014Z,23.11
2023-09-26T23:40:22.338Z,23.07
2023-09-26T23:42:50.311Z,23.01
2023-09-26T23:45:18.540Z,23.02
2023-09-26T23:47:46.630Z,22.91
2023-09-26T23:50:16.592Z,23.02
2023-09-26T23:52:45.541Z,22.85
2023-09-26T23:55:13.553Z,22.87
2023-09-26T23:57:42.356Z,22.87
